Cleveland, Georgia
Current Conditions -  °F | °C
As of 6:53 PM on Friday 24 Oct 2014 (Local Time) from KGVL Reporting Station
Clear Clear  
Wind Chill: 65°   Ceiling: Unl
Heat Index: 65°   Visibility: 10mi
Dew Point: 43°   Wind: 5mph
Humidity: 45%   Direction: 210°SSW
Pressure: 30.01"   Gusts: NA
Location:  34.6°N, 83.76°W
Report Text: KGVL 242253Z AUTO 21004KT 10SM CLR 18/06 A3001 RMK AO2 SLP157 T01830061
Loading
Personal Weather Stations






























Interactive Weather Map
Tropical Storm Tracking
New forecast layout! Learn more

10-Day Weather Forecast

Advertisements
Track Severe Weather on mobile